createdAt,value
2018-01-28T00:01:36.063Z,75.92
2018-01-28T00:04:04.707Z,75.53
2018-01-28T00:06:33.279Z,76.16
2018-01-28T00:09:02.640Z,75.95
2018-01-28T00:11:31.184Z,76.62
2018-01-28T00:13:59.676Z,76.48
2018-01-28T00:16:28.186Z,76.96
2018-01-28T00:18:56.864Z,77.41
2018-01-28T00:21:25.355Z,77.07
2018-01-28T00:23:53.850Z,76.53
2018-01-28T00:26:22.616Z,77.43
2018-01-28T00:28:51.144Z,77.24
2018-01-28T00:31:20.403Z,77.10
2018-01-28T00:33:49.390Z,78.87
2018-01-28T00:36:17.882Z,77.47
2018-01-28T00:38:46.375Z,78.24
2018-01-28T00:41:14.970Z,77.26
2018-01-28T00:43:44.239Z,76.77
2018-01-28T00:46:12.740Z,77.55
2018-01-28T00:48:41.643Z,77.39
2018-01-28T00:51:11.711Z,77.55
2018-01-28T00:53:40.207Z,76.81
2018-01-28T00:56:08.744Z,77.36
2018-01-28T00:58:38.003Z,77.22
2018-01-28T01:01:06.556Z,76.85
2018-01-28T01:03:35.235Z,76.64
2018-01-28T01:06:03.780Z,76.73
2018-01-28T01:08:32.279Z,76.43
2018-01-28T01:11:02.032Z,75.92
2018-01-28T01:13:30.579Z,76.13
2018-01-28T01:15:59.068Z,75.72
2018-01-28T01:18:27.883Z,76.77
2018-01-28T01:20:56.435Z,76.20
2018-01-28T01:23:24.923Z,75.39
2018-01-28T01:25:53.463Z,75.82
2018-01-28T01:28:22.772Z,75.52
2018-01-28T01:30:52.025Z,76.02
2018-01-28T01:33:20.647Z,75.27
2018-01-28T01:35:49.146Z,75.85
2018-01-28T01:38:18.399Z,76.00
2018-01-28T01:40:46.995Z,75.87
2018-01-28T01:43:15.551Z,76.26
2018-01-28T01:45:44.048Z,76.49
2018-01-28T01:48:12.645Z,77.13
2018-01-28T01:50:41.208Z,76.82
2018-01-28T01:53:09.699Z,76.13
2018-01-28T01:55:38.295Z,76.14
2018-01-28T01:58:06.876Z,76.04
2018-01-28T02:00:35.444Z,76.48
2018-01-28T02:03:04.267Z,76.16
2018-01-28T02:05:33.587Z,75.03
2018-01-28T02:08:02.912Z,75.12
2018-01-28T02:10:31.504Z,75.04
2018-01-28T02:13:00.068Z,75.50
2018-01-28T02:15:28.562Z,74.63
2018-01-28T02:17:57.472Z,74.38
2018-01-28T02:20:26.053Z,74.68
2018-01-28T02:22:54.604Z,74.91
2018-01-28T02:25:23.183Z,74.62
2018-01-28T02:27:51.903Z,74.18
2018-01-28T02:30:20.457Z,74.01
2018-01-28T02:32:49.136Z,73.93
2018-01-28T02:35:17.688Z,73.34
2018-01-28T02:37:46.173Z,73.45
2018-01-28T02:40:14.719Z,73.83
2018-01-28T02:42:43.251Z,74.16
2018-01-28T02:45:12.507Z,74.25
2018-01-28T02:47:41.867Z,75.18
2018-01-28T02:50:10.421Z,74.56
2018-01-28T02:52:38.974Z,73.76
2018-01-28T02:55:07.679Z,72.87
2018-01-28T02:57:36.166Z,73.36
2018-01-28T03:00:04.772Z,74.04
2018-01-28T03:02:34.366Z,73.63
2018-01-28T03:05:04.455Z,73.30
2018-01-28T03:07:32.947Z,73.15
2018-01-28T03:10:01.539Z,72.74
2018-01-28T03:12:30.097Z,73.04
2018-01-28T03:14:58.650Z,73.44
2018-01-28T03:17:27.468Z,73.06
2018-01-28T03:19:56.032Z,73.49
2018-01-28T03:22:24.580Z,72.57
2018-01-28T03:24:53.889Z,73.12
2018-01-28T03:27:23.139Z,72.58
2018-01-28T03:29:51.631Z,72.84
2018-01-28T03:32:20.335Z,73.46
2018-01-28T03:34:48.920Z,72.74
2018-01-28T03:37:17.432Z,73.67
2018-01-28T03:39:46.731Z,73.83
2018-01-28T03:42:15.223Z,74.18
2018-01-28T03:44:43.710Z,74.48
2018-01-28T03:47:12.247Z,74.04
2018-01-28T03:49:41.576Z,74.31
2018-01-28T03:52:10.076Z,74.25
2018-01-28T03:54:38.923Z,73.74
2018-01-28T03:57:08.184Z,72.65
2018-01-28T03:59:36.716Z,73.42
2018-01-28T04:02:06.023Z,75.16
2018-01-28T04:04:35.287Z,74.01
2018-01-28T04:07:03.851Z,74.41
2018-01-28T04:09:32.391Z,73.41
2018-01-28T04:12:01.703Z,74.17
2018-01-28T04:14:30.264Z,73.66
2018-01-28T04:16:59.573Z,73.68
2018-01-28T04:19:28.066Z,73.52
2018-01-28T04:21:56.577Z,74.78
2018-01-28T04:24:25.483Z,74.05
2018-01-28T04:26:53.975Z,74.21
2018-01-28T04:29:22.483Z,74.38
2018-01-28T04:31:51.883Z,74.04
2018-01-28T04:34:21.144Z,73.86
2018-01-28T04:36:49.639Z,73.02
2018-01-28T04:39:18.341Z,73.50
2018-01-28T04:41:47.683Z,73.67
2018-01-28T04:44:16.182Z,73.84
2018-01-28T04:46:44.791Z,73.84
2018-01-28T04:49:13.345Z,73.41
2018-01-28T04:51:41.836Z,73.38
2018-01-28T04:54:10.375Z,72.98
2018-01-28T04:56:38.873Z,74.89
2018-01-28T04:59:07.888Z,73.95
2018-01-28T05:01:37.739Z,74.65
2018-01-28T05:04:07.007Z,74.81
2018-01-28T05:06:35.511Z,73.36
2018-01-28T05:09:04.107Z,72.87
2018-01-28T05:11:33.387Z,72.39
2018-01-28T05:14:01.957Z,72.69
2018-01-28T05:16:30.651Z,74.57
2018-01-28T05:18:59.171Z,73.03
2018-01-28T05:21:28.499Z,74.27
2018-01-28T05:23:57.511Z,72.36
2018-01-28T05:26:26.020Z,73.46
2018-01-28T05:28:54.577Z,73.85
2018-01-28T05:31:23.571Z,72.70
2018-01-28T05:33:52.063Z,72.25
2018-01-28T05:36:20.639Z,72.78
2018-01-28T05:38:49.186Z,73.11
2018-01-28T05:41:17.677Z,72.70
2018-01-28T05:43:46.239Z,72.43
2018-01-28T05:46:15.543Z,72.29
2018-01-28T05:48:44.099Z,74.14
2018-01-28T05:51:12.605Z,73.83
2018-01-28T05:53:41.155Z,73.70
2018-01-28T05:56:09.656Z,73.25
2018-01-28T05:58:38.922Z,72.83
2018-01-28T06:01:07.628Z,73.66
2018-01-28T06:03:36.127Z,73.06
2018-01-28T06:06:05.440Z,72.79
2018-01-28T06:08:33.991Z,72.28
2018-01-28T06:11:02.553Z,72.52
2018-01-28T06:13:31.047Z,72.43
2018-01-28T06:15:59.807Z,73.10
2018-01-28T06:18:28.379Z,71.97
2018-01-28T06:20:56.943Z,71.63
2018-01-28T06:23:25.570Z,70.59
2018-01-28T06:25:54.119Z,71.49
2018-01-28T06:28:22.608Z,71.62
2018-01-28T06:30:51.214Z,70.72
2018-01-28T06:33:19.780Z,70.66
2018-01-28T06:35:48.310Z,69.45
2018-01-28T06:38:17.107Z,67.51
2018-01-28T06:40:46.443Z,68.53
2018-01-28T06:43:14.947Z,68.66
2018-01-28T06:45:43.634Z,67.79
2018-01-28T06:48:12.219Z,65.97
2018-01-28T06:50:40.719Z,67.19
2018-01-28T06:53:09.524Z,66.03
2018-01-28T06:55:38.783Z,67.29
2018-01-28T06:58:07.276Z,69.65
2018-01-28T07:00:36.594Z,68.73
2018-01-28T07:03:05.083Z,67.37
2018-01-28T07:05:33.586Z,69.42
2018-01-28T07:08:02.584Z,68.66
2018-01-28T07:10:31.136Z,69.58
2018-01-28T07:13:00.395Z,65.48
2018-01-28T07:15:29.107Z,64.50
2018-01-28T07:17:58.416Z,65.20
2018-01-28T07:20:26.974Z,63.69
2018-01-28T07:22:55.515Z,62.76
2018-01-28T07:25:24.095Z,64.45
2018-01-28T07:27:54.076Z,62.54
2018-01-28T07:30:23.683Z,60.74
2018-01-28T07:32:53.004Z,61.91
2018-01-28T07:35:21.572Z,63.04
2018-01-28T07:37:50.152Z,62.41
2018-01-28T07:40:18.728Z,62.70
2018-01-28T07:42:47.219Z,62.33
2018-01-28T07:45:15.925Z,59.63
2018-01-28T07:47:44.423Z,58.85
2018-01-28T07:50:12.977Z,60.49
2018-01-28T07:52:43.042Z,60.60
2018-01-28T07:55:11.543Z,53.86
2018-01-28T07:57:40.063Z,54.64
2018-01-28T08:00:08.688Z,52.75
2018-01-28T08:02:37.234Z,55.39
2018-01-28T08:05:06.495Z,55.51
2018-01-28T08:07:35.120Z,55.29
2018-01-28T08:10:19.443Z,54.87
2018-01-28T08:12:48.472Z,55.65
2018-01-28T08:15:16.976Z,53.58
2018-01-28T08:17:45.529Z,53.27
2018-01-28T08:20:14.188Z,52.01
2018-01-28T08:22:42.716Z,48.67
2018-01-28T08:25:11.308Z,49.56
2018-01-28T08:27:41.503Z,53.78
2018-01-28T08:30:10.817Z,50.11
2018-01-28T08:32:39.368Z,49.89
2018-01-28T08:35:08.162Z,49.30
2018-01-28T08:37:36.659Z,49.90
2018-01-28T08:40:05.945Z,54.11
2018-01-28T08:42:34.550Z,50.79
2018-01-28T08:45:03.100Z,50.20
2018-01-28T08:47:31.660Z,48.81
2018-01-28T08:50:00.341Z,50.81
2018-01-28T08:52:28.840Z,48.33
2018-01-28T08:54:58.107Z,49.48
2018-01-28T08:57:26.839Z,48.80
2018-01-28T08:59:56.164Z,49.42
2018-01-28T09:02:25.770Z,47.97
2018-01-28T09:04:54.575Z,48.57
2018-01-28T09:07:23.083Z,50.32
2018-01-28T09:09:51.603Z,48.47
2018-01-28T09:12:20.146Z,49.92
2018-01-28T09:14:48.651Z,47.27
2018-01-28T09:17:17.159Z,46.99
2018-01-28T09:19:46.471Z,47.40
2018-01-28T09:22:14.986Z,48.21
2018-01-28T09:24:43.487Z,46.30
2018-01-28T09:27:12.131Z,48.16
2018-01-28T09:29:41.399Z,45.85
2018-01-28T09:32:09.890Z,46.20
2018-01-28T09:34:39.196Z,45.61
2018-01-28T09:37:07.691Z,46.55
2018-01-28T09:39:36.955Z,44.76
2018-01-28T09:42:05.735Z,44.74
2018-01-28T09:44:34.325Z,44.13
2018-01-28T09:47:02.876Z,45.53
2018-01-28T09:49:31.511Z,43.49
2018-01-28T09:52:00.073Z,44.07
2018-01-28T09:54:28.578Z,43.06
2018-01-28T09:56:57.139Z,47.70
2018-01-28T09:59:25.642Z,47.21
2018-01-28T10:01:54.205Z,46.53
2018-01-28T10:04:22.744Z,44.67
2018-01-28T10:06:51.312Z,44.79
2018-01-28T10:09:19.868Z,43.15
2018-01-28T10:11:48.624Z,42.30
2018-01-28T10:14:17.951Z,42.94
2018-01-28T10:16:46.449Z,43.80
2018-01-28T10:19:14.984Z,42.33
2018-01-28T10:21:43.499Z,42.41
2018-01-28T10:24:12.971Z,41.61
2018-01-28T10:26:41.667Z,40.98
2018-01-28T10:29:10.172Z,40.49
2018-01-28T10:31:39.531Z,39.33
2018-01-28T10:34:08.077Z,38.86
2018-01-28T10:36:36.572Z,40.31
2018-01-28T10:39:05.116Z,42.35
2018-01-28T10:41:34.424Z,39.19
2018-01-28T10:44:03.736Z,37.79
2018-01-28T10:46:33.017Z,38.93
2018-01-28T10:49:02.327Z,39.63
2018-01-28T10:51:31.594Z,36.78
2018-01-28T10:54:00.891Z,39.60
2018-01-28T10:56:29.431Z,40.08
2018-01-28T10:58:57.926Z,37.90
2018-01-28T11:01:26.430Z,39.79
2018-01-28T11:03:55.852Z,38.56
2018-01-28T11:06:25.173Z,37.61
2018-01-28T11:08:53.679Z,38.27
2018-01-28T11:11:22.216Z,40.28
2018-01-28T11:13:50.754Z,39.18
2018-01-28T11:16:19.286Z,39.65
2018-01-28T11:18:47.835Z,39.06
2018-01-28T11:21:16.332Z,37.65
2018-01-28T11:23:44.892Z,38.61
2018-01-28T11:26:14.588Z,36.86
2018-01-28T11:28:43.964Z,37.02
2018-01-28T11:31:12.461Z,40.35
2018-01-28T11:33:41.012Z,37.64
2018-01-28T11:36:09.532Z,37.06
2018-01-28T11:38:38.708Z,37.77
2018-01-28T11:41:07.251Z,37.04
2018-01-28T11:43:35.748Z,39.11
2018-01-28T11:46:04.305Z,37.32
2018-01-28T11:48:32.916Z,36.21
2018-01-28T11:51:02.248Z,37.48
2018-01-28T11:53:30.749Z,35.41
2018-01-28T11:55:59.301Z,36.84
2018-01-28T11:58:27.812Z,35.54
2018-01-28T12:00:56.312Z,36.98
2018-01-28T12:03:25.693Z,38.33
2018-01-28T12:05:54.207Z,35.41
2018-01-28T12:08:23.478Z,36.12
2018-01-28T12:10:52.296Z,36.65
2018-01-28T12:13:20.801Z,36.72
2018-01-28T12:15:49.306Z,36.20
2018-01-28T12:18:18.238Z,37.94
2018-01-28T12:20:47.507Z,35.63
2018-01-28T12:23:16.079Z,36.84
2018-01-28T12:25:44.780Z,37.03
2018-01-28T12:28:13.370Z,36.02
2018-01-28T12:30:41.948Z,34.80
2018-01-28T12:33:10.567Z,33.03
2018-01-28T12:35:39.075Z,34.04
2018-01-28T12:38:07.572Z,31.53
2018-01-28T12:40:36.121Z,34.51
2018-01-28T12:43:04.688Z,32.91
2018-01-28T12:45:33.955Z,33.16
2018-01-28T12:48:02.516Z,34.68
2018-01-28T12:50:31.012Z,35.86
2018-01-28T12:53:00.331Z,35.68
2018-01-28T12:55:30.021Z,35.16
2018-01-28T12:57:58.517Z,35.45
2018-01-28T13:00:27.796Z,34.98
2018-01-28T13:02:57.107Z,34.14
2018-01-28T13:05:26.441Z,33.56
2018-01-28T13:07:54.935Z,34.09
2018-01-28T13:10:23.738Z,35.15
2018-01-28T13:12:52.300Z,34.51
2018-01-28T13:15:20.808Z,36.62
2018-01-28T13:17:49.356Z,34.94
2018-01-28T13:20:17.923Z,36.26
2018-01-28T13:22:46.475Z,34.81
2018-01-28T13:25:15.016Z,37.53
2018-01-28T13:27:43.579Z,36.46
2018-01-28T13:30:12.885Z,37.61
2018-01-28T13:32:41.500Z,38.60
2018-01-28T13:35:10.012Z,37.12
2018-01-28T13:37:38.500Z,38.16
2018-01-28T13:40:07.220Z,37.15
2018-01-28T13:42:36.492Z,38.10
2018-01-28T13:45:05.017Z,37.23
2018-01-28T13:47:33.676Z,36.67
2018-01-28T13:50:02.188Z,37.06
2018-01-28T13:52:30.687Z,38.28
2018-01-28T13:54:59.452Z,37.73
2018-01-28T13:57:28.836Z,37.04
2018-01-28T13:59:57.360Z,37.15
2018-01-28T14:02:25.905Z,37.23
2018-01-28T14:04:55.172Z,36.94
2018-01-28T14:07:23.764Z,37.11
2018-01-28T14:09:52.479Z,37.00
2018-01-28T14:12:20.975Z,38.34
2018-01-28T14:14:49.472Z,38.07
2018-01-28T14:17:18.123Z,38.84
2018-01-28T14:19:46.736Z,38.97
2018-01-28T14:22:15.245Z,39.56
2018-01-28T14:24:43.817Z,39.96
2018-01-28T14:27:12.388Z,41.00
2018-01-28T14:29:40.876Z,40.80
2018-01-28T14:32:09.435Z,41.13
2018-01-28T14:34:37.989Z,41.22
2018-01-28T14:37:06.504Z,41.29
2018-01-28T14:39:36.948Z,42.02
2018-01-28T14:42:05.449Z,42.88
2018-01-28T14:44:34.037Z,43.42
2018-01-28T14:47:02.692Z,44.29
2018-01-28T14:49:31.954Z,45.07
2018-01-28T14:52:00.517Z,46.55
2018-01-28T14:54:29.153Z,47.17
2018-01-28T14:56:57.688Z,48.02
2018-01-28T14:59:26.201Z,50.03
2018-01-28T15:01:55.098Z,50.89
2018-01-28T15:04:25.665Z,50.51
2018-01-28T15:06:54.250Z,50.97
2018-01-28T15:09:24.905Z,51.18
2018-01-28T15:11:54.255Z,51.79
2018-01-28T15:14:29.047Z,52.17
2018-01-28T15:16:57.544Z,53.96
2018-01-28T15:19:36.894Z,55.61
2018-01-28T15:22:05.381Z,55.90
2018-01-28T15:24:34.007Z,53.97
2018-01-28T15:27:02.515Z,54.20
2018-01-28T15:29:31.013Z,54.23
2018-01-28T15:31:59.547Z,54.58
2018-01-28T15:34:28.876Z,54.70
2018-01-28T15:36:57.378Z,55.45
2018-01-28T15:39:25.918Z,55.34
2018-01-28T15:41:55.233Z,55.58
2018-01-28T15:44:23.782Z,55.36
2018-01-28T15:46:53.928Z,55.82
2018-01-28T15:49:22.435Z,56.30
2018-01-28T15:51:51.691Z,56.87
2018-01-28T15:54:20.326Z,56.82
2018-01-28T15:56:48.828Z,56.71
2018-01-28T15:59:17.333Z,56.66
2018-01-28T16:01:45.948Z,57.48
2018-01-28T16:04:14.463Z,57.85
2018-01-28T16:06:43.017Z,57.82
2018-01-28T16:09:11.911Z,58.44
2018-01-28T16:11:40.399Z,58.72
2018-01-28T16:14:09.659Z,59.42
2018-01-28T16:16:38.366Z,59.81
2018-01-28T16:19:06.940Z,60.10
2018-01-28T16:21:35.504Z,59.72
2018-01-28T16:24:04.092Z,59.56
2018-01-28T16:26:32.756Z,60.09
2018-01-28T16:29:01.256Z,60.41
2018-01-28T16:31:29.824Z,60.52
2018-01-28T16:33:58.426Z,61.66
2018-01-28T16:36:26.927Z,61.62
2018-01-28T16:38:55.696Z,62.19
2018-01-28T16:41:24.252Z,62.11
2018-01-28T16:43:52.853Z,62.85
2018-01-28T16:46:21.400Z,62.39
2018-01-28T16:48:50.653Z,62.66
2018-01-28T16:51:19.224Z,63.64
2018-01-28T16:53:47.782Z,63.52
2018-01-28T16:56:16.347Z,63.32
2018-01-28T16:58:44.907Z,64.08
2018-01-28T17:01:13.463Z,64.30
2018-01-28T17:03:42.736Z,64.94
2018-01-28T17:06:11.289Z,65.23
2018-01-28T17:08:39.833Z,64.90
2018-01-28T17:11:09.089Z,64.18
2018-01-28T17:13:38.534Z,64.25
2018-01-28T17:16:07.852Z,64.16
2018-01-28T17:18:36.423Z,64.92
2018-01-28T17:21:05.767Z,64.87
2018-01-28T17:23:34.509Z,65.28
2018-01-28T17:26:03.780Z,65.60
2018-01-28T17:28:33.046Z,66.30
2018-01-28T17:31:01.796Z,66.90
2018-01-28T17:33:31.124Z,67.02
2018-01-28T17:35:59.615Z,67.18
2018-01-28T17:38:28.459Z,66.88
2018-01-28T17:40:57.751Z,66.45
2018-01-28T17:43:26.270Z,65.91
2018-01-28T17:45:54.807Z,65.28
2018-01-28T17:48:23.575Z,65.97
2018-01-28T17:50:52.071Z,66.20
2018-01-28T17:53:20.775Z,66.91
2018-01-28T17:55:50.249Z,66.79
2018-01-28T17:58:18.838Z,66.93
2018-01-28T18:00:47.760Z,65.95
2018-01-28T18:03:17.037Z,65.40
2018-01-28T18:05:45.555Z,65.81
2018-01-28T18:08:14.868Z,65.99
2018-01-28T18:10:43.372Z,65.78
2018-01-28T18:13:11.888Z,65.27
2018-01-28T18:15:40.647Z,65.58
2018-01-28T18:18:09.292Z,65.84
2018-01-28T18:20:38.612Z,66.33
2018-01-28T18:23:07.200Z,66.34
2018-01-28T18:25:35.916Z,66.66
2018-01-28T18:28:04.415Z,67.70
2018-01-28T18:30:33.123Z,68.56
2018-01-28T18:33:02.384Z,67.51
2018-01-28T18:35:31.016Z,67.27
2018-01-28T18:37:59.556Z,67.88
2018-01-28T18:40:28.128Z,67.53
2018-01-28T18:42:56.632Z,66.51
2018-01-28T18:45:25.436Z,66.82
2018-01-28T18:47:55.436Z,67.16
2018-01-28T18:50:23.924Z,67.91
2018-01-28T18:52:52.459Z,68.86
2018-01-28T18:55:20.953Z,68.20
2018-01-28T18:57:49.448Z,68.88
2018-01-28T19:00:18.142Z,68.95
2018-01-28T19:02:46.644Z,68.93
2018-01-28T19:05:15.130Z,68.63
2018-01-28T19:07:44.662Z,68.44
2018-01-28T19:10:13.156Z,68.36
2018-01-28T19:12:41.655Z,68.82
2018-01-28T19:15:10.259Z,69.03
2018-01-28T19:17:38.965Z,68.65
2018-01-28T19:20:07.685Z,68.87
2018-01-28T19:22:36.226Z,69.16
2018-01-28T19:25:04.732Z,69.68
2018-01-28T19:27:33.308Z,68.29
2018-01-28T19:30:01.868Z,68.82
2018-01-28T19:32:30.365Z,68.91
2018-01-28T19:34:58.860Z,68.65
2018-01-28T19:37:27.851Z,68.49
2018-01-28T19:39:56.414Z,68.91
2018-01-28T19:42:24.919Z,69.37
2018-01-28T19:44:53.509Z,69.58
2018-01-28T19:47:22.003Z,70.60
2018-01-28T19:49:50.508Z,70.27
2018-01-28T19:52:20.159Z,70.76
2018-01-28T19:54:48.660Z,70.35
2018-01-28T19:57:17.153Z,72.56
2018-01-28T19:59:46.123Z,73.53
2018-01-28T20:02:14.761Z,72.82
2018-01-28T20:04:43.264Z,72.20
2018-01-28T20:07:12.055Z,71.04
2018-01-28T20:09:40.563Z,72.52
2018-01-28T20:12:09.145Z,71.88
2018-01-28T20:14:38.451Z,71.74
2018-01-28T20:17:07.049Z,70.87
2018-01-28T20:19:35.783Z,72.32
2018-01-28T20:22:05.086Z,72.09
2018-01-28T20:24:33.591Z,71.88
2018-01-28T20:27:02.866Z,71.93
2018-01-28T20:29:32.268Z,72.24
2018-01-28T20:32:02.282Z,71.87
2018-01-28T20:34:30.790Z,73.06
2018-01-28T20:37:00.118Z,73.28
2018-01-28T20:39:28.634Z,73.40
2018-01-28T20:41:57.144Z,72.91
2018-01-28T20:44:26.464Z,73.01
2018-01-28T20:46:54.976Z,72.89
2018-01-28T20:49:23.475Z,72.71
2018-01-28T20:51:52.029Z,72.73
2018-01-28T20:54:20.529Z,73.32
2018-01-28T20:56:49.112Z,73.53
2018-01-28T20:59:17.655Z,73.72
2018-01-28T21:01:46.913Z,73.60
2018-01-28T21:04:15.407Z,73.39
2018-01-28T21:06:43.959Z,73.55
2018-01-28T21:09:12.459Z,73.19
2018-01-28T21:11:40.964Z,73.17
2018-01-28T21:14:10.293Z,72.99
2018-01-28T21:16:38.794Z,73.39
2018-01-28T21:19:07.303Z,72.96
2018-01-28T21:21:35.885Z,71.49
2018-01-28T21:24:04.432Z,71.44
2018-01-28T21:26:32.950Z,71.40
2018-01-28T21:29:01.511Z,72.14
2018-01-28T21:31:30.021Z,74.36
2018-01-28T21:33:58.525Z,75.34
2018-01-28T21:36:27.836Z,76.03
2018-01-28T21:38:57.099Z,74.91
2018-01-28T21:41:25.668Z,74.41
2018-01-28T21:43:54.393Z,75.17
2018-01-28T21:46:23.704Z,75.13
2018-01-28T21:48:52.970Z,74.60
2018-01-28T21:51:21.948Z,75.43
2018-01-28T21:53:50.441Z,76.22
2018-01-28T21:56:18.944Z,76.20
2018-01-28T21:58:48.449Z,75.63
2018-01-28T22:01:17.792Z,76.17
2018-01-28T22:03:46.328Z,75.61
2018-01-28T22:06:14.879Z,75.82
2018-01-28T22:08:43.378Z,75.81
2018-01-28T22:11:11.945Z,76.11
2018-01-28T22:13:40.591Z,75.41
2018-01-28T22:16:09.155Z,75.63
2018-01-28T22:18:38.425Z,75.60
2018-01-28T22:21:06.971Z,74.14
2018-01-28T22:23:35.476Z,74.52
2018-01-28T22:26:03.996Z,74.71
2018-01-28T22:28:34.419Z,74.16
2018-01-28T22:31:03.692Z,74.70
2018-01-28T22:33:32.259Z,73.96
2018-01-28T22:36:01.018Z,73.85
2018-01-28T22:38:29.502Z,73.96
2018-01-28T22:40:58.009Z,74.06
2018-01-28T22:43:26.552Z,74.69
2018-01-28T22:45:55.823Z,75.74
2018-01-28T22:48:24.382Z,75.77
2018-01-28T22:50:53.103Z,75.78
2018-01-28T22:53:21.604Z,75.85
2018-01-28T22:55:51.179Z,76.11
2018-01-28T22:58:19.880Z,74.83
2018-01-28T23:00:49.210Z,75.40
2018-01-28T23:03:17.709Z,74.44
2018-01-28T23:05:46.252Z,74.53
2018-01-28T23:08:15.511Z,74.58
2018-01-28T23:10:44.060Z,74.18
2018-01-28T23:13:12.665Z,75.07
2018-01-28T23:15:41.165Z,75.40
2018-01-28T23:18:09.716Z,75.47
2018-01-28T23:20:38.260Z,74.73
2018-01-28T23:23:07.584Z,75.67
2018-01-28T23:25:36.083Z,75.50
2018-01-28T23:28:04.923Z,75.51
2018-01-28T23:30:33.421Z,75.64
2018-01-28T23:33:03.623Z,76.55
2018-01-28T23:35:32.276Z,76.14
2018-01-28T23:38:00.780Z,75.54
2018-01-28T23:40:29.276Z,75.42
2018-01-28T23:42:57.878Z,75.70
2018-01-28T23:45:27.208Z,76.45
2018-01-28T23:47:55.764Z,76.57
2018-01-28T23:50:25.247Z,75.64
2018-01-28T23:52:53.754Z,75.57
2018-01-28T23:55:22.252Z,75.89
2018-01-28T23:57:51.175Z,75.93
